sensor_id;sensor_type;location;lat;lon;timestamp;pressure;altitude;pressure_sealevel;temperature;humidity
60307;BME280;46155;52.364;6.580;2023-06-14T03:02:43;101338.78;;;15.95;60.30
60307;BME280;46155;52.364;6.580;2023-06-14T03:05:09;101343.34;;;15.99;60.12
60307;BME280;46155;52.364;6.580;2023-06-14T03:07:35;101344.22;;;15.98;60.65
60307;BME280;46155;52.364;6.580;2023-06-14T03:10:00;101345.84;;;15.96;60.37
60307;BME280;46155;52.364;6.580;2023-06-14T03:12:25;101350.59;;;16.03;60.33
60307;BME280;46155;52.364;6.580;2023-06-14T03:14:51;101356.53;;;15.97;60.27
60307;BME280;46155;52.364;6.580;2023-06-14T03:17:16;101353.94;;;15.99;60.38
60307;BME280;46155;52.364;6.580;2023-06-14T03:19:42;101358.97;;;15.93;60.69
60307;BME280;46155;52.364;6.580;2023-06-14T03:22:08;101357.06;;;15.90;60.71
60307;BME280;46155;52.364;6.580;2023-06-14T03:24:33;101357.69;;;15.84;61.03
60307;BME280;46155;52.364;6.580;2023-06-14T03:27:02;101356.63;;;15.81;61.27
60307;BME280;46155;52.364;6.580;2023-06-14T03:29:27;101371.38;;;15.94;60.76
60307;BME280;46155;52.364;6.580;2023-06-14T03:32:00;101376.88;;;15.98;60.84
60307;BME280;46155;52.364;6.580;2023-06-14T03:34:25;101381.97;;;15.94;60.94
60307;BME280;46155;52.364;6.580;2023-06-14T03:36:51;101374.25;;;15.80;61.04
60307;BME280;46155;52.364;6.580;2023-06-14T03:39:17;101370.59;;;15.78;61.29
60307;BME280;46155;52.364;6.580;2023-06-14T03:41:42;101374.41;;;15.83;61.26
60307;BME280;46155;52.364;6.580;2023-06-14T03:44:07;101376.34;;;15.88;61.53
60307;BME280;46155;52.364;6.580;2023-06-14T03:46:33;101383.13;;;16.18;61.52
60307;BME280;46155;52.364;6.580;2023-06-14T03:48:58;101380.84;;;16.65;59.70
60307;BME280;46155;52.364;6.580;2023-06-14T03:51:23;101383.09;;;16.56;59.18
60307;BME280;46155;52.364;6.580;2023-06-14T03:53:50;101389.91;;;16.31;59.81
60307;BME280;46155;52.364;6.580;2023-06-14T03:56:16;101380.25;;;16.14;60.28
60307;BME280;46155;52.364;6.580;2023-06-14T03:58:41;101391.19;;;16.02;60.89
60307;BME280;46155;52.364;6.580;2023-06-14T04:01:06;101395.63;;;16.03;60.85
60307;BME280;46155;52.364;6.580;2023-06-14T04:03:32;101394.38;;;15.95;61.41
60307;BME280;46155;52.364;6.580;2023-06-14T04:05:58;101393.53;;;15.96;61.09
60307;BME280;46155;52.364;6.580;2023-06-14T04:08:25;101403.16;;;15.94;61.64
60307;BME280;46155;52.364;6.580;2023-06-14T04:10:50;101393.91;;;15.86;61.88
60307;BME280;46155;52.364;6.580;2023-06-14T04:13:15;101400.03;;;15.84;62.22
60307;BME280;46155;52.364;6.580;2023-06-14T04:15:42;101407.84;;;15.81;61.96
60307;BME280;46155;52.364;6.580;2023-06-14T04:18:08;101411.47;;;15.83;62.31
60307;BME280;46155;52.364;6.580;2023-06-14T04:20:34;101410.41;;;15.80;62.09
60307;BME280;46155;52.364;6.580;2023-06-14T04:25:39;101419.56;;;15.87;62.33
60307;BME280;46155;52.364;6.580;2023-06-14T04:28:05;101415.25;;;15.89;62.35
60307;BME280;46155;52.364;6.580;2023-06-14T04:30:30;101420.53;;;15.89;62.42
60307;BME280;46155;52.364;6.580;2023-06-14T04:32:56;101422.38;;;15.90;62.74
60307;BME280;46155;52.364;6.580;2023-06-14T04:35:22;101416.31;;;15.92;62.60
60307;BME280;46155;52.364;6.580;2023-06-14T04:37:49;101430.44;;;15.93;62.60
60307;BME280;46155;52.364;6.580;2023-06-14T04:40:14;101424.47;;;15.97;62.57
60307;BME280;46155;52.364;6.580;2023-06-14T04:42:40;101425.97;;;15.92;62.53
60307;BME280;46155;52.364;6.580;2023-06-14T04:45:06;101432.63;;;16.01;62.88
60307;BME280;46155;52.364;6.580;2023-06-14T04:47:32;101434.13;;;16.14;62.20
60307;BME280;46155;52.364;6.580;2023-06-14T04:49:59;101451.09;;;16.18;61.84
60307;BME280;46155;52.364;6.580;2023-06-14T04:52:25;101429.22;;;16.04;61.79
60307;BME280;46155;52.364;6.580;2023-06-14T04:54:52;101448.81;;;16.26;61.67
60307;BME280;46155;52.364;6.580;2023-06-14T04:57:19;101448.19;;;16.31;61.21
60307;BME280;46155;52.364;6.580;2023-06-14T04:59:47;101451.75;;;16.32;61.05
60307;BME280;46155;52.364;6.580;2023-06-14T05:02:12;101451.97;;;16.37;61.09
60307;BME280;46155;52.364;6.580;2023-06-14T05:04:38;101448.56;;;16.39;60.96
60307;BME280;46155;52.364;6.580;2023-06-14T05:07:09;101458.47;;;16.43;60.88
60307;BME280;46155;52.364;6.580;2023-06-14T05:09:36;101453.03;;;16.40;61.00
60307;BME280;46155;52.364;6.580;2023-06-14T05:12:02;101454.53;;;16.53;60.92
60307;BME280;46155;52.364;6.580;2023-06-14T05:14:27;101470.09;;;16.65;60.21
60307;BME280;46155;52.364;6.580;2023-06-14T05:16:52;101470.84;;;16.62;60.53
60307;BME280;46155;52.364;6.580;2023-06-14T05:19:18;101473.69;;;16.67;59.89
60307;BME280;46155;52.364;6.580;2023-06-14T05:21:44;101471.50;;;16.76;59.95
60307;BME280;46155;52.364;6.580;2023-06-14T05:24:09;101471.75;;;16.82;59.42
60307;BME280;46155;52.364;6.580;2023-06-14T05:26:36;101462.28;;;16.87;59.14
60307;BME280;46155;52.364;6.580;2023-06-14T05:29:02;101462.75;;;16.97;59.97
60307;BME280;46155;52.364;6.580;2023-06-14T05:31:27;101455.06;;;17.03;60.25
60307;BME280;46155;52.364;6.580;2023-06-14T05:33:53;101468.16;;;17.19;59.43
60307;BME280;46155;52.364;6.580;2023-06-14T05:36:20;101459.09;;;17.14;59.36
60307;BME280;46155;52.364;6.580;2023-06-14T05:38:46;101470.91;;;17.21;58.77
60307;BME280;46155;52.364;6.580;2023-06-14T05:41:12;101479.19;;;17.29;58.80
60307;BME280;46155;52.364;6.580;2023-06-14T05:43:37;101478.47;;;17.33;58.13
60307;BME280;46155;52.364;6.580;2023-06-14T05:46:03;101478.03;;;17.43;58.46
60307;BME280;46155;52.364;6.580;2023-06-14T05:48:29;101485.53;;;17.53;57.67
60307;BME280;46155;52.364;6.580;2023-06-14T05:50:55;101485.25;;;17.67;57.85
60307;BME280;46155;52.364;6.580;2023-06-14T05:53:20;101485.63;;;17.76;57.77
60307;BME280;46155;52.364;6.580;2023-06-14T05:55:45;101487.97;;;17.89;56.93
60307;BME280;46155;52.364;6.580;2023-06-14T05:58:11;101495.03;;;18.10;55.95
60307;BME280;46155;52.364;6.580;2023-06-14T06:00:38;101495.56;;;18.45;55.03
60307;BME280;46155;52.364;6.580;2023-06-14T06:03:04;101504.25;;;18.64;53.89
60307;BME280;46155;52.364;6.580;2023-06-14T06:05:30;101508.34;;;18.55;53.41
60307;BME280;46155;52.364;6.580;2023-06-14T06:07:55;101499.72;;;18.61;53.31
60307;BME280;46155;52.364;6.580;2023-06-14T06:10:21;101498.44;;;18.74;53.24
60307;BME280;46155;52.364;6.580;2023-06-14T06:12:46;101506.31;;;18.71;52.88
60307;BME280;46155;52.364;6.580;2023-06-14T06:15:13;101511.88;;;19.00;53.05
60307;BME280;46155;52.364;6.580;2023-06-14T06:17:39;101515.34;;;19.21;52.70
60307;BME280;46155;52.364;6.580;2023-06-14T06:20:06;101513.88;;;19.55;52.38
60307;BME280;46155;52.364;6.580;2023-06-14T06:22:34;101505.94;;;19.81;50.18
60307;BME280;46155;52.364;6.580;2023-06-14T06:24:59;101513.28;;;19.88;50.09
60307;BME280;46155;52.364;6.580;2023-06-14T06:27:25;101510.59;;;19.63;49.61
60307;BME280;46155;52.364;6.580;2023-06-14T06:29:50;101513.06;;;19.82;50.53
60307;BME280;46155;52.364;6.580;2023-06-14T06:32:17;101514.16;;;20.15;49.07
60307;BME280;46155;52.364;6.580;2023-06-14T06:34:42;101515.00;;;20.41;48.59
60307;BME280;46155;52.364;6.580;2023-06-14T06:37:07;101521.88;;;20.34;47.70
60307;BME280;46155;52.364;6.580;2023-06-14T06:39:32;101517.16;;;20.53;48.86
60307;BME280;46155;52.364;6.580;2023-06-14T06:41:58;101512.47;;;20.45;48.69
60307;BME280;46155;52.364;6.580;2023-06-14T06:44:23;101516.66;;;20.66;49.65
60307;BME280;46155;52.364;6.580;2023-06-14T06:46:48;101528.81;;;20.85;48.00
60307;BME280;46155;52.364;6.580;2023-06-14T06:49:14;101531.94;;;21.01;47.28
60307;BME280;46155;52.364;6.580;2023-06-14T06:51:42;101525.13;;;21.10;46.84
60307;BME280;46155;52.364;6.580;2023-06-14T06:54:11;101530.00;;;21.25;47.56
60307;BME280;46155;52.364;6.580;2023-06-14T06:56:36;101537.81;;;21.19;45.44
60307;BME280;46155;52.364;6.580;2023-06-14T06:59:01;101539.66;;;20.90;45.62
60307;BME280;46155;52.364;6.580;2023-06-14T07:01:27;101539.22;;;20.76;47.13
60307;BME280;46155;52.364;6.580;2023-06-14T07:03:57;101533.97;;;20.79;46.99
60307;BME280;46155;52.364;6.580;2023-06-14T07:06:22;101547.47;;;20.84;46.55
60307;BME280;46155;52.364;6.580;2023-06-14T07:08:47;101541.41;;;20.89;47.28
60307;BME280;46155;52.364;6.580;2023-06-14T07:11:15;101548.81;;;20.98;45.89
60307;BME280;46155;52.364;6.580;2023-06-14T07:13:41;101549.31;;;20.86;45.83
60307;BME280;46155;52.364;6.580;2023-06-14T07:16:06;101555.63;;;20.88;46.39
60307;BME280;46155;52.364;6.580;2023-06-14T07:18:31;101548.84;;;21.00;46.01
60307;BME280;46155;52.364;6.580;2023-06-14T07:20:57;101551.19;;;21.19;45.91
60307;BME280;46155;52.364;6.580;2023-06-14T07:23:23;101548.47;;;20.87;45.69
60307;BME280;46155;52.364;6.580;2023-06-14T07:25:48;101548.56;;;20.90;46.05
60307;BME280;46155;52.364;6.580;2023-06-14T07:28:14;101556.56;;;20.90;45.71
60307;BME280;46155;52.364;6.580;2023-06-14T07:30:39;101565.44;;;21.20;46.07
60307;BME280;46155;52.364;6.580;2023-06-14T07:33:05;101553.28;;;21.29;46.13
60307;BME280;46155;52.364;6.580;2023-06-14T07:35:30;101559.41;;;21.57;44.22
60307;BME280;46155;52.364;6.580;2023-06-14T07:37:56;101561.72;;;21.77;44.93
60307;BME280;46155;52.364;6.580;2023-06-14T07:40:21;101565.13;;;21.39;45.94
60307;BME280;46155;52.364;6.580;2023-06-14T07:42:46;101572.06;;;21.64;44.22
60307;BME280;46155;52.364;6.580;2023-06-14T07:45:13;101564.16;;;21.67;43.13
60307;BME280;46155;52.364;6.580;2023-06-14T07:47:39;101572.06;;;21.64;43.30
60307;BME280;46155;52.364;6.580;2023-06-14T07:50:05;101568.56;;;21.65;43.77
60307;BME280;46155;52.364;6.580;2023-06-14T07:52:30;101573.81;;;21.62;42.78
60307;BME280;46155;52.364;6.580;2023-06-14T07:54:56;101567.00;;;21.74;43.23
60307;BME280;46155;52.364;6.580;2023-06-14T07:57:21;101569.44;;;21.99;42.55
60307;BME280;46155;52.364;6.580;2023-06-14T07:59:47;101566.44;;;21.87;42.04
60307;BME280;46155;52.364;6.580;2023-06-14T08:02:12;101564.97;;;21.65;41.58
60307;BME280;46155;52.364;6.580;2023-06-14T08:04:38;101565.38;;;21.79;42.12
60307;BME280;46155;52.364;6.580;2023-06-14T08:07:04;101569.31;;;21.93;40.30
60307;BME280;46155;52.364;6.580;2023-06-14T08:09:29;101565.22;;;21.74;39.78
60307;BME280;46155;52.364;6.580;2023-06-14T08:11:56;101571.50;;;22.10;40.07
60307;BME280;46155;52.364;6.580;2023-06-14T08:14:21;101571.34;;;22.04;39.42
60307;BME280;46155;52.364;6.580;2023-06-14T08:16:47;101567.41;;;22.24;40.09
60307;BME280;46155;52.364;6.580;2023-06-14T08:19:12;101574.19;;;22.45;40.22
60307;BME280;46155;52.364;6.580;2023-06-14T08:21:38;101565.84;;;22.70;39.21
60307;BME280;46155;52.364;6.580;2023-06-14T08:24:03;101575.25;;;22.91;39.39
60307;BME280;46155;52.364;6.580;2023-06-14T08:26:29;101571.97;;;23.04;38.85
60307;BME280;46155;52.364;6.580;2023-06-14T08:28:55;101568.22;;;22.96;37.49
60307;BME280;46155;52.364;6.580;2023-06-14T08:31:22;101560.31;;;23.01;39.74
60307;BME280;46155;52.364;6.580;2023-06-14T08:33:47;101571.38;;;23.16;38.05
60307;BME280;46155;52.364;6.580;2023-06-14T08:36:12;101578.88;;;22.93;37.29
60307;BME280;46155;52.364;6.580;2023-06-14T08:38:38;101568.03;;;22.49;36.77
60307;BME280;46155;52.364;6.580;2023-06-14T08:41:05;101578.63;;;22.09;37.91
60307;BME280;46155;52.364;6.580;2023-06-14T08:43:34;101571.00;;;21.91;37.96
60307;BME280;46155;52.364;6.580;2023-06-14T08:46:03;101563.63;;;21.81;37.98
60307;BME280;46155;52.364;6.580;2023-06-14T08:48:31;101562.50;;;21.73;38.89
60307;BME280;46155;52.364;6.580;2023-06-14T08:51:01;101559.72;;;21.68;38.47
60307;BME280;46155;52.364;6.580;2023-06-14T08:53:30;101553.00;;;21.84;40.07
60307;BME280;46155;52.364;6.580;2023-06-14T08:55:57;101554.38;;;22.01;38.71
60307;BME280;46155;52.364;6.580;2023-06-14T08:58:22;101557.47;;;22.18;38.21
60307;BME280;46155;52.364;6.580;2023-06-14T09:00:49;101552.72;;;22.42;38.50
60307;BME280;46155;52.364;6.580;2023-06-14T09:03:17;101554.56;;;22.44;37.47
60307;BME280;46155;52.364;6.580;2023-06-14T09:05:45;101554.34;;;22.37;37.16
60307;BME280;46155;52.364;6.580;2023-06-14T09:08:11;101560.66;;;22.39;37.32
60307;BME280;46155;52.364;6.580;2023-06-14T09:10:36;101563.84;;;22.60;38.03
60307;BME280;46155;52.364;6.580;2023-06-14T09:13:03;101560.28;;;22.60;38.10
60307;BME280;46155;52.364;6.580;2023-06-14T09:15:30;101555.97;;;22.68;37.66
60307;BME280;46155;52.364;6.580;2023-06-14T09:17:55;101554.63;;;22.85;37.52
60307;BME280;46155;52.364;6.580;2023-06-14T09:20:23;101576.78;;;23.18;37.48
60307;BME280;46155;52.364;6.580;2023-06-14T09:22:49;101564.75;;;23.00;36.46
60307;BME280;46155;52.364;6.580;2023-06-14T09:25:14;101558.97;;;22.82;37.00
60307;BME280;46155;52.364;6.580;2023-06-14T09:27:41;101555.22;;;22.74;37.74
60307;BME280;46155;52.364;6.580;2023-06-14T09:30:09;101558.16;;;22.84;37.19
60307;BME280;46155;52.364;6.580;2023-06-14T09:32:38;101571.44;;;22.80;37.64
60307;BME280;46155;52.364;6.580;2023-06-14T09:35:06;101557.75;;;23.07;37.16
60307;BME280;46155;52.364;6.580;2023-06-14T09:37:32;101559.34;;;22.99;36.39
60307;BME280;46155;52.364;6.580;2023-06-14T09:39:58;101554.47;;;22.79;37.88
60307;BME280;46155;52.364;6.580;2023-06-14T09:42:24;101555.59;;;22.91;37.66
60307;BME280;46155;52.364;6.580;2023-06-14T09:44:52;101550.59;;;22.66;37.56
60307;BME280;46155;52.364;6.580;2023-06-14T09:47:18;101556.63;;;22.56;38.63
60307;BME280;46155;52.364;6.580;2023-06-14T09:49:43;101557.44;;;22.93;38.81
60307;BME280;46155;52.364;6.580;2023-06-14T09:52:13;101566.25;;;23.29;38.34
60307;BME280;46155;52.364;6.580;2023-06-14T09:54:43;101567.06;;;22.85;37.34
60307;BME280;46155;52.364;6.580;2023-06-14T09:57:11;101559.72;;;22.75;37.13
60307;BME280;46155;52.364;6.580;2023-06-14T09:59:48;101568.44;;;22.31;36.82
60307;BME280;46155;52.364;6.580;2023-06-14T10:02:22;101568.00;;;22.47;38.04
60307;BME280;46155;52.364;6.580;2023-06-14T10:05:04;101578.75;;;22.87;37.12
60307;BME280;46155;52.364;6.580;2023-06-14T10:07:53;101566.56;;;23.01;36.36
60307;BME280;46155;52.364;6.580;2023-06-14T10:10:19;101568.03;;;22.87;35.94
60307;BME280;46155;52.364;6.580;2023-06-14T10:12:44;101566.50;;;22.98;35.77
60307;BME280;46155;52.364;6.580;2023-06-14T10:15:17;101566.53;;;23.00;35.57
60307;BME280;46155;52.364;6.580;2023-06-14T10:17:50;101575.06;;;23.23;36.04
60307;BME280;46155;52.364;6.580;2023-06-14T10:23:19;101586.28;;;22.65;36.80
60307;BME280;46155;52.364;6.580;2023-06-14T10:25:49;101573.06;;;22.73;36.91
60307;BME280;46155;52.364;6.580;2023-06-14T10:28:20;101577.78;;;22.85;36.24
60307;BME280;46155;52.364;6.580;2023-06-14T10:31:03;101588.59;;;22.88;36.17
60307;BME280;46155;52.364;6.580;2023-06-14T10:33:29;101578.09;;;22.99;36.71
60307;BME280;46155;52.364;6.580;2023-06-14T10:36:07;101584.44;;;23.02;36.04
60307;BME280;46155;52.364;6.580;2023-06-14T10:38:32;101570.44;;;23.14;36.19
60307;BME280;46155;52.364;6.580;2023-06-14T10:40:59;101581.44;;;23.28;36.80
60307;BME280;46155;52.364;6.580;2023-06-14T10:43:25;101578.09;;;22.99;35.67
60307;BME280;46155;52.364;6.580;2023-06-14T10:46:16;101577.13;;;23.35;36.69
60307;BME280;46155;52.364;6.580;2023-06-14T10:48:43;101583.03;;;23.20;35.77
60307;BME280;46155;52.364;6.580;2023-06-14T10:51:19;101578.50;;;22.78;36.56
60307;BME280;46155;52.364;6.580;2023-06-14T10:53:48;101582.09;;;22.77;35.85
60307;BME280;46155;52.364;6.580;2023-06-14T10:56:26;101567.19;;;22.90;37.80
60307;BME280;46155;52.364;6.580;2023-06-14T10:58:53;101568.22;;;22.96;36.23
60307;BME280;46155;52.364;6.580;2023-06-14T11:01:29;101572.28;;;23.17;36.82
60307;BME280;46155;52.364;6.580;2023-06-14T11:03:57;101580.88;;;23.03;36.26
60307;BME280;46155;52.364;6.580;2023-06-14T11:06:49;101560.38;;;22.64;36.37
60307;BME280;46155;52.364;6.580;2023-06-14T11:12:03;101574.47;;;23.36;36.01
60307;BME280;46155;52.364;6.580;2023-06-14T11:14:30;101558.19;;;23.27;37.08
60307;BME280;46155;52.364;6.580;2023-06-14T11:16:56;101563.56;;;23.27;37.28
60307;BME280;46155;52.364;6.580;2023-06-14T11:19:21;101559.19;;;23.32;36.23
60307;BME280;46155;52.364;6.580;2023-06-14T11:21:50;101555.06;;;23.50;36.78
60307;BME280;46155;52.364;6.580;2023-06-14T11:24:16;101560.63;;;23.59;35.83
60307;BME280;46155;52.364;6.580;2023-06-14T11:26:42;101553.41;;;23.55;35.49
60307;BME280;46155;52.364;6.580;2023-06-14T11:29:07;101555.75;;;23.38;36.73
60307;BME280;46155;52.364;6.580;2023-06-14T11:31:32;101557.06;;;23.16;36.93
60307;BME280;46155;52.364;6.580;2023-06-14T11:33:59;101553.91;;;23.35;37.12
60307;BME280;46155;52.364;6.580;2023-06-14T11:36:31;101553.66;;;23.25;35.95
60307;BME280;46155;52.364;6.580;2023-06-14T11:39:03;101556.59;;;23.35;36.35
60307;BME280;46155;52.364;6.580;2023-06-14T11:41:39;101556.03;;;23.52;35.98
60307;BME280;46155;52.364;6.580;2023-06-14T11:44:05;101547.53;;;23.30;35.44
60307;BME280;46155;52.364;6.580;2023-06-14T11:46:31;101544.00;;;23.31;36.40
60307;BME280;46155;52.364;6.580;2023-06-14T11:48:56;101547.88;;;23.47;36.06
60307;BME280;46155;52.364;6.580;2023-06-14T11:51:22;101545.03;;;23.38;37.05
60307;BME280;46155;52.364;6.580;2023-06-14T11:53:48;101548.19;;;23.18;36.32
60307;BME280;46155;52.364;6.580;2023-06-14T11:56:13;101552.88;;;23.30;37.21
60307;BME280;46155;52.364;6.580;2023-06-14T11:58:39;101551.22;;;23.35;36.53
60307;BME280;46155;52.364;6.580;2023-06-14T12:01:05;101545.97;;;23.42;36.66
60307;BME280;46155;52.364;6.580;2023-06-14T12:03:30;101545.72;;;23.75;35.47
60307;BME280;46155;52.364;6.580;2023-06-14T12:06:08;101540.69;;;23.91;34.86
60307;BME280;46155;52.364;6.580;2023-06-14T12:08:37;101557.66;;;23.91;34.99
60307;BME280;46155;52.364;6.580;2023-06-14T12:11:10;101536.41;;;24.03;35.75
60307;BME280;46155;52.364;6.580;2023-06-14T12:13:38;101551.22;;;23.84;35.92
60307;BME280;46155;52.364;6.580;2023-06-14T12:16:03;101545.34;;;23.55;35.95
60307;BME280;46155;52.364;6.580;2023-06-14T12:18:33;101543.84;;;23.71;36.62
60307;BME280;46155;52.364;6.580;2023-06-14T12:20:59;101539.16;;;24.06;35.25
60307;BME280;46155;52.364;6.580;2023-06-14T12:23:48;101548.47;;;24.29;35.56
60307;BME280;46155;52.364;6.580;2023-06-14T12:26:17;101547.72;;;24.37;35.11
60307;BME280;46155;52.364;6.580;2023-06-14T12:28:47;101552.91;;;24.28;35.44
60307;BME280;46155;52.364;6.580;2023-06-14T12:31:14;101540.16;;;24.12;36.08
60307;BME280;46155;52.364;6.580;2023-06-14T12:33:40;101558.34;;;23.81;35.36
60307;BME280;46155;52.364;6.580;2023-06-14T12:36:10;101552.44;;;23.53;35.49
60307;BME280;46155;52.364;6.580;2023-06-14T12:38:36;101553.84;;;23.80;35.19
60307;BME280;46155;52.364;6.580;2023-06-14T12:41:01;101561.44;;;24.02;34.28
60307;BME280;46155;52.364;6.580;2023-06-14T12:43:27;101555.63;;;23.79;34.18
60307;BME280;46155;52.364;6.580;2023-06-14T12:45:53;101556.59;;;23.84;34.00
60307;BME280;46155;52.364;6.580;2023-06-14T12:48:18;101558.25;;;23.76;34.79
60307;BME280;46155;52.364;6.580;2023-06-14T12:50:44;101557.00;;;23.57;35.08
60307;BME280;46155;52.364;6.580;2023-06-14T12:53:09;101548.16;;;23.61;35.04
60307;BME280;46155;52.364;6.580;2023-06-14T12:55:36;101566.41;;;23.82;36.09
60307;BME280;46155;52.364;6.580;2023-06-14T12:58:01;101542.63;;;24.01;35.80
60307;BME280;46155;52.364;6.580;2023-06-14T13:00:26;101554.41;;;24.11;35.26
60307;BME280;46155;52.364;6.580;2023-06-14T13:02:52;101549.09;;;24.14;35.41
60307;BME280;46155;52.364;6.580;2023-06-14T13:05:17;101556.59;;;24.33;35.04
60307;BME280;46155;52.364;6.580;2023-06-14T13:07:43;101558.81;;;24.07;34.53
60307;BME280;46155;52.364;6.580;2023-06-14T13:10:09;101554.94;;;23.89;34.33
60307;BME280;46155;52.364;6.580;2023-06-14T13:12:35;101554.97;;;23.91;35.30
60307;BME280;46155;52.364;6.580;2023-06-14T13:15:00;101554.56;;;23.69;35.49
60307;BME280;46155;52.364;6.580;2023-06-14T13:17:26;101552.25;;;23.88;35.97
60307;BME280;46155;52.364;6.580;2023-06-14T13:19:51;101551.66;;;24.06;35.59
60307;BME280;46155;52.364;6.580;2023-06-14T13:22:16;101546.69;;;24.29;34.78
60307;BME280;46155;52.364;6.580;2023-06-14T13:24:42;101552.94;;;24.30;34.08
60307;BME280;46155;52.364;6.580;2023-06-14T13:27:07;101551.09;;;24.26;33.84
60307;BME280;46155;52.364;6.580;2023-06-14T13:29:33;101558.13;;;24.17;33.60
60307;BME280;46155;52.364;6.580;2023-06-14T13:32:01;101563.50;;;24.19;33.88
60307;BME280;46155;52.364;6.580;2023-06-14T13:34:26;101556.41;;;24.24;34.05
60307;BME280;46155;52.364;6.580;2023-06-14T13:36:52;101550.34;;;23.84;34.33
60307;BME280;46155;52.364;6.580;2023-06-14T13:39:17;101553.59;;;24.15;34.49
60307;BME280;46155;52.364;6.580;2023-06-14T13:41:42;101545.03;;;24.37;34.22
60307;BME280;46155;52.364;6.580;2023-06-14T13:44:07;101550.50;;;24.45;33.69
60307;BME280;46155;52.364;6.580;2023-06-14T13:46:33;101550.13;;;24.22;33.70
60307;BME280;46155;52.364;6.580;2023-06-14T13:48:58;101552.41;;;23.97;33.83
60307;BME280;46155;52.364;6.580;2023-06-14T13:51:25;101545.28;;;23.99;35.00
60307;BME280;46155;52.364;6.580;2023-06-14T13:53:52;101533.06;;;24.17;35.12
60307;BME280;46155;52.364;6.580;2023-06-14T13:56:18;101537.44;;;24.10;33.57
60307;BME280;46155;52.364;6.580;2023-06-14T13:58:44;101539.75;;;23.90;33.28
60307;BME280;46155;52.364;6.580;2023-06-14T14:01:10;101531.81;;;23.95;32.27
60307;BME280;46155;52.364;6.580;2023-06-14T14:03:36;101541.94;;;24.13;33.71
60307;BME280;46155;52.364;6.580;2023-06-14T14:06:03;101533.13;;;24.20;32.50
60307;BME280;46155;52.364;6.580;2023-06-14T14:08:29;101524.34;;;24.30;32.11
60307;BME280;46155;52.364;6.580;2023-06-14T14:10:54;101526.31;;;24.44;31.88
60307;BME280;46155;52.364;6.580;2023-06-14T14:13:21;101526.28;;;24.40;30.90
60307;BME280;46155;52.364;6.580;2023-06-14T14:15:46;101526.28;;;24.40;31.38
60307;BME280;46155;52.364;6.580;2023-06-14T14:18:11;101521.66;;;24.30;30.74
60307;BME280;46155;52.364;6.580;2023-06-14T14:20:37;101531.56;;;24.34;30.48
60307;BME280;46155;52.364;6.580;2023-06-14T14:23:17;101532.66;;;24.47;31.49
60307;BME280;46155;52.364;6.580;2023-06-14T14:25:46;101533.53;;;24.46;31.93
60307;BME280;46155;52.364;6.580;2023-06-14T14:28:12;101534.34;;;24.42;31.55
60307;BME280;46155;52.364;6.580;2023-06-14T14:30:38;101526.81;;;24.16;32.39
60307;BME280;46155;52.364;6.580;2023-06-14T14:33:05;101530.44;;;24.20;32.67
60307;BME280;46155;52.364;6.580;2023-06-14T14:35:31;101516.91;;;24.14;32.58
60307;BME280;46155;52.364;6.580;2023-06-14T14:37:57;101520.59;;;24.19;32.57
60307;BME280;46155;52.364;6.580;2023-06-14T14:40:22;101528.69;;;24.23;33.30
60307;BME280;46155;52.364;6.580;2023-06-14T14:42:47;101519.03;;;24.33;33.18
60307;BME280;46155;52.364;6.580;2023-06-14T14:45:12;101513.44;;;24.21;32.97
60307;BME280;46155;52.364;6.580;2023-06-14T14:47:38;101533.06;;;24.17;34.14
60307;BME280;46155;52.364;6.580;2023-06-14T14:50:03;101531.34;;;24.22;32.34
60307;BME280;46155;52.364;6.580;2023-06-14T14:52:29;101520.25;;;23.97;32.83
60307;BME280;46155;52.364;6.580;2023-06-14T14:54:54;101524.59;;;23.91;33.51
60307;BME280;46155;52.364;6.580;2023-06-14T14:57:21;101519.66;;;24.18;32.93
60307;BME280;46155;52.364;6.580;2023-06-14T14:59:46;101520.47;;;24.13;33.19
60307;BME280;46155;52.364;6.580;2023-06-14T15:02:12;101519.75;;;24.23;33.34
60307;BME280;46155;52.364;6.580;2023-06-14T15:04:37;101524.34;;;24.30;32.65
60307;BME280;46155;52.364;6.580;2023-06-14T15:07:02;101528.88;;;24.34;33.21
60307;BME280;46155;52.364;6.580;2023-06-14T15:09:31;101528.06;;;24.38;33.02
60307;BME280;46155;52.364;6.580;2023-06-14T15:12:05;101524.44;;;24.36;32.96
60307;BME280;46155;52.364;6.580;2023-06-14T15:14:32;101522.69;;;24.38;33.75
60307;BME280;46155;52.364;6.580;2023-06-14T15:16:57;101522.59;;;24.35;33.72
60307;BME280;46155;52.364;6.580;2023-06-14T15:19:23;101519.09;;;24.39;33.19
60307;BME280;46155;52.364;6.580;2023-06-14T15:21:49;101511.94;;;24.38;33.34
60307;BME280;46155;52.364;6.580;2023-06-14T15:24:14;101525.38;;;24.40;32.92
60307;BME280;46155;52.364;6.580;2023-06-14T15:26:39;101525.16;;;24.26;33.15
60307;BME280;46155;52.364;6.580;2023-06-14T15:29:05;101528.88;;;24.34;33.53
60307;BME280;46155;52.364;6.580;2023-06-14T15:31:30;101515.50;;;24.37;33.99
60307;BME280;46155;52.364;6.580;2023-06-14T15:33:55;101521.06;;;24.50;33.54
60307;BME280;46155;52.364;6.580;2023-06-14T15:36:21;101522.84;;;24.51;33.53
60307;BME280;46155;52.364;6.580;2023-06-14T15:38:46;101523.81;;;24.56;33.75
60307;BME280;46155;52.364;6.580;2023-06-14T15:41:12;101524.88;;;24.64;33.35
60307;BME280;46155;52.364;6.580;2023-06-14T15:43:37;101510.59;;;24.65;33.33
60307;BME280;46155;52.364;6.580;2023-06-14T15:46:02;101519.50;;;24.63;33.56
60307;BME280;46155;52.364;6.580;2023-06-14T15:48:28;101513.81;;;24.44;33.80
60307;BME280;46155;52.364;6.580;2023-06-14T15:50:53;101505.75;;;24.43;34.65
60307;BME280;46155;52.364;6.580;2023-06-14T15:53:19;101509.38;;;24.48;35.01
60307;BME280;46155;52.364;6.580;2023-06-14T15:55:44;101522.00;;;24.53;34.41
60307;BME280;46155;52.364;6.580;2023-06-14T15:58:10;101513.88;;;24.47;34.63